首页
METAR-TAF:

METAR-TAF

机场 :

开普敦国际机场

開普敦, 南非共和國

纬度: 33-59S, 经度: 018-36E, 海拔: 42米

当前天气观测

该预报发布于58分钟前的10:00 UTC
风速12节,风向南转西南
温度 22°C
湿度 65%
气压 1017 hPa
能见度10公里或以上
少量云层高于3000英尺

METAR: FACT 241000Z 20012KT 9999 FEW030 22/15 Q1017 NOSIG

时间: 12:58 (10:58 UTC)

预报

该预报发布于6小时和58分钟前的04:00 UTC
预报有效从24日的 06点(UTC)到 25日的 12点(UTC)
风速17节,风向
能见度10公里或以上
少量云层高于3000英尺
成为
从 24日的 22点(UTC)到 24日的 24点(UTC)
风速5节,风向南转西南

TAF: FACT 240400Z 2406/2512 18017KT 9999 FEW030 TX26/2512Z TN15/2505Z BECMG 2422/2424 20005KT

超过4000个机场的气象观测和天气预报(METAR&TAF报告)。

可查询的气象台以黄色和红色小点在地图上表示。

将鼠标移到小点上方,可查看气象台名称。

然后点击查看天气观测和预报。

如需切换地图:点击带黑十字的绿色按钮放大地图;点击带横线的绿色按钮缩小地图;或者点击绿色箭头查看邻近地区的地图。


METAR-TAF: